Accueil
METAR-TAF:

METAR-TAF

Aéroports :

Sedona, Arizona, États-Unis

latitude: 34-51N, longitude: 111-47W, altitude: 1471 m

Observation

Le bulletin a été fait il y a 16 minutes, à 09:35 UTC
Vent 8 kt de nord-est
Température 25°C
Humidité 24%
Pression 1020 hPa
Visibilité: 16.1 km
Ciel clair

METAR: KSEZ 300935Z AUTO 04008KT 10SM CLR 25/03 A3011 RMK AO2

Heure: 02:51 (09:51 UTC)

Prévision

Le bulletin a été fait il y a 4 heures et 22 minutes, à 05:29 UTC
Prévision valable du 30 à 06 UTC au 31 à 06 UTC
Vent 7 kt de est/nord-est
Visibilité: 10 km
Nuages épars à une hauteur de 14000 ft
A partir de 30 à 1800 UTC
Vent 14 kt de sud avec des rafales jusqu'à 20 kt
Visibilité: 10 km
Nuages épars à une hauteur de 15000 ft
A partir de 31 à 0200 UTC
Vent 8 kt de sud/sud-ouest
Visibilité: 10 km
Quelques nuages à une hauteur de 15000 ft

TAF: KSEZ 300529Z 3006/3106 07007KT P6SM SCT140 FM301800 18014G20KT P6SM SCT150 FM310200 20008KT P6SM FEW150

Observations et prévisions météorologiques de plus de 4000 aéroports (messages METAR et TAF).

Les stations disponibles sont représentées par des disques jaunes et rouges sur la carte.

Passer la souris dessus pour voir le nom de la station.

Cliquer dessus pour voir les observations et prévisions météorologiques.

Pour changer de carte: cliquez sur les boutons verts avec une croix noire pour zoomer, sur le bouton vert avec un tiret pour effectuer un zoom arrière, ou sur les flèches vertes pour les cartes adjacentes.


METAR-TAF: